Roseburg, OR (97470)

11:30 AM PDT on March 28, 2017 (GMT -0700)
West Umpqua Street | | Change Station

Elev 0 ft 43.22 °N, 123.36 °W | Updated 21 minutes ago

Overcast
Overcast
50.0 °F
Feels Like 50.0 °F
N
1.2
Wind Variable Wind from NW
Gusts 3.1 mph

Today
High -- | Low -- °F
--% Chance of Precip.
Yesterday
High -- | Low -- °F
Precip. -- in
Pressure 30.40 in
Visibility 10.0 miles
Clouds Overcast 9500 ft
Dew Point 44 °F
Humidity 78%
Rainfall 0.00 in
Snow Depth Not available.
7:01 AM 7:35 PM
New Moon, 1% visible
METAR KRBG 281753Z AUTO VRB04KT 10SM OVC095 11/06 A3039 RMK AO2 SLP292 60000 T01060061 10106 20067 50002
Pressure 30.40 in
Visibility 10.0 miles
Clouds Overcast 9500 ft
Dew Point 44 °F
Humidity 78%
Rainfall 0.00 in
Snow Depth Not available.
7:01 AM 7:35 PM
New Moon, 1% visible
METAR KRBG 281753Z AUTO VRB04KT 10SM OVC095 11/06 A3039 RMK AO2 SLP292 60000 T01060061 10106 20067 50002

Get Severe Weather Alerts

Thanks for signing up!

Be on the lookout for a verification email in your inbox.

You'll start receiving the daily forecast at 8 AM.

×

10-Day Weather Forecast

Almanac

Astronomy

Mar. 28, 2017 Rise Set
Actual Time
Civil Twilight
Nautical Twilight
Astronomical Twilight
Moon
Length of Visible Light
Length of Day
Tomorrow will be .
, % of the Moon is Illuminated

Today's Extremes

State Highs State Lows

Community

WunderPhotos

Upload Photos

1,962,540 photos uploaded!

WunderBlog® & News

Nearby

Air Quality

  Air Quality AQ Index Pollutant
Not available.

Snow Depth

Station Depth Elevation

Earthquake Activity

City Distance Mag. Time & Date
Minimum magnitude displayed is 2.5.

Earthquake Activity

City Distance Mag. Time & Date
Minimum magnitude displayed is 2.5.

Coastal Water Temperatures

Place Temperature

Stations

Nearby Weather Stations

Station Location Temp. Windchill Dew Point Humidity Wind Precip. Elev Updated Type
                   

Watches & Warnings

There are currently no watches in effect.